This is the latest recevied weather packets stored in our database for station/object KC5CAM-13. If no packets are shown the sender has not sent any weather packets the latest 1 day(s).
| Time | Temp. | Humidity | Pressure | Rain* | Wind** | Luminosity | Snow |
|---|---|---|---|---|---|---|---|
| 1778099987 | 19.44° C | 69% | 1014.9 hPa | 0 mm | - | 391 W/m² | - |
| 1778099684 | 19.44° C | 67% | 1014.9 hPa | 0 mm | - | 344 W/m² | - |
| 1778099381 | 19.44° C | 68% | 1014.9 hPa | 0 mm | - | 363 W/m² | - |
| 1778098472 | 18.89° C | 70% | 1015.4 hPa | 0 mm | - | 399 W/m² | - |
| 1778097865 | 18.89° C | 69% | 1015.5 hPa | 0 mm | - | 345 W/m² | - |
| 1778096955 | 17.22° C | 72% | 1015.8 hPa | 0 mm | - | 404 W/m² | - |
| 1778096652 | 17.78° C | 71% | 1016 hPa | 0 mm | - | 365 W/m² | - |
| 1778096349 | 17.78° C | 71% | 1015.7 hPa | 0 mm | - | 363 W/m² | - |
| 1778096046 | 17.78° C | 72% | 1015.7 hPa | 0 mm | - | 368 W/m² | - |
| 1778094530 | 17.78° C | 70% | 1015.7 hPa | 0 mm | - | 363 W/m² | - |
| 1778094226 | 17.78° C | 72% | 1015.3 hPa | 0 mm | - | 382 W/m² | - |
| 1778093317 | 16.67° C | 72% | 1015.3 hPa | 0 mm | - | 647 W/m² | - |
| 1778090894 | 14.44° C | 77% | 1015.4 hPa | 0 mm | - | 199 W/m² | - |
| 1778089680 | 13.89° C | 80% | 1015.3 hPa | 0 mm | - | 209 W/m² | - |
| 1778089075 | 13.89° C | 81% | 1015.1 hPa | 0 mm | - | 226 W/m² | - |
| 1778088165 | 13.33° C | 83% | 1015.3 hPa | 0 mm | - | 158 W/m² | - |
| 1778086046 | 12.22° C | 85% | 1016.2 hPa | 0 mm | - | 92 W/m² | - |
| 1778083620 | 11.67° C | 90% | 1016.2 hPa | 0 mm | - | 55 W/m² | - |
| 1778083015 | 11.67° C | 90% | 1015.4 hPa | 0 mm | - | 85 W/m² | - |
| 1778080667 | 12.22° C | 86% | 1017.5 hPa | 0 mm | - | 32 W/m² | - |
| 1778080363 | 12.22° C | 86% | 1017.4 hPa | 0 mm | - | 24 W/m² | - |
| 1778080060 | 12.22° C | 86% | 1017.1 hPa | 0 mm | - | 24 W/m² | - |
| 1778079757 | 12.22° C | 86% | 1016.7 hPa | 0 mm | - | 28 W/m² | - |
| 1778079454 | 11.67° C | 86% | 1016.4 hPa | 0 mm | - | 42 W/m² | - |
| 1778078242 | 11.67° C | 86% | 1015.7 hPa | 0 mm | - | 41 W/m² | - |
* Rain latest hour (hover to see other rain measurements)
** Current wind speed in m/s (hover to see current wind gust speed)